Thursday, April 26, 2018, 5:36 AM EDT
Back to Local

KMSV, Monticello, Sullivan County International Airport

Location: Swan Lake, NY, United States Lat: 41.7
Local Time: 5:36 AM EDT ( 9:36 GMT) Lon: -74.8
Time Zone: US/Eastern Elev: 1404 ft

Show me the last for .
Show Decoded

2018-04-26 05:16 METAR KMSV 260916Z AUTO 29010G17KT 9SM BKN011 OVC017 09/08 A2966 RMK AO2 CIG
                 007V013 =
2018-04-26 05:03 METAR KMSV 260903Z AUTO 28011G15KT 10SM BKN009 OVC015 09/08 A2966 RMK AO2 CIG
                 007V012 =
2018-04-26 04:56 METAR KMSV 260856Z AUTO 29009KT 10SM SCT009 OVC017 09/08 A2966 RMK AO2 SLP044
                 60000 T00940083 53004 =
2018-04-26 04:45 METAR KMSV 260845Z AUTO 28010KT 10SM SCT009 OVC015 09/08 A2965 RMK AO2 =
2018-04-26 04:36 METAR KMSV 260836Z AUTO 27010KT 10SM BKN009 OVC015 09/09 A2965 RMK AO2 CIG
                 007V013 =
2018-04-26 04:13 METAR KMSV 260813Z AUTO 29008KT 10SM BKN015 OVC037 09/09 A2965 RMK AO2 =
2018-04-26 03:56 METAR KMSV 260756Z AUTO 30008KT 10SM FEW015 OVC037 10/09 A2965 RMK AO2 SLP040
                 T01000089 =
2018-04-26 03:29 METAR KMSV 260729Z AUTO 29009KT 10SM FEW008 SCT012 OVC037 10/09 A2964 RMK AO2 =
2018-04-26 03:24 METAR KMSV 260724Z AUTO 28009KT 10SM BKN010 OVC037 10/09 RMK AO2 CIG 007V014 $ =
2018-04-26 03:09 METAR KMSV 260709Z AUTO 29009KT 10SM BKN008 BKN014 OVC026 10/09 A2964 RMK AO2
                 CIG 007V012 =
2018-04-26 02:56 METAR KMSV 260656Z AUTO 29009KT 10SM BKN012 OVC026 10/09 A2964 RMK AO2 RAB00E18
                 SLP037 P0000 T01000094 =
2018-04-26 02:33 METAR KMSV 260633Z AUTO 29008KT 10SM FEW003 BKN015 OVC028 11/09 A2964 RMK AO2
                 RAB00E18 P0000 =
2018-04-26 02:25 METAR KMSV 260625Z AUTO 29008KT 10SM SCT003 BKN010 OVC015 11/10 A2964 RMK AO2
                 RAB00E18 P0000 =
2018-04-26 02:18 METAR KMSV 260618Z AUTO 29007G15KT 10SM SCT003 SCT010 OVC015 11/10 A2964 RMK AO2
                 RAB00E18 P0000 =
2018-04-26 02:04 METAR KMSV 260604Z AUTO 27009KT 5SM -RA BR BKN003 OVC013 11/11 A2965 RMK AO2
                 RAB00 P0000 =
2018-04-26 01:56 METAR KMSV 260556Z AUTO 27007KT 9SM 11/11 A2964 RMK AO2 SLP039 6//// T01110106 =
2018-04-26 00:56 METAR KMSV 260456Z AUTO RMK AO2 SLPNO 401280067 PWINO FZRANO RVRNO $ =
2018-04-26 00:35 METAR KMSV 260435Z AUTO 12/12 RMK AO2 PWINO RVRNO $ =
2018-04-26 00:18 METAR KMSV 260418Z AUTO 28008KT 5SM BR OVC002 12/12 A2966 RMK AO2 =
2018-04-26 00:10 METAR KMSV 260410Z AUTO 27005KT 2 1/2SM BR OVC002 12/12 A2967 RMK AO2 VIS 1
                 1/2V5 =
2018-04-25 23:56 METAR KMSV 260356Z AUTO 27004KT 1 1/2SM BR OVC002 12/12 A2967 RMK AO2 VIS 1V2
                 1/2 CIG 001V006 SLP047 T01170117 =
2018-04-25 23:51 METAR KMSV 260351Z AUTO 27004KT 1SM BR OVC002 12/12 A2967 RMK AO2 RVRNO =
2018-04-25 23:26 METAR KMSV 260326Z AUTO 00000KT 1/2SM FG OVC002 12/12 A2967 RMK AO2 RVRNO =
2018-04-25 23:16 METAR KMSV 260316Z AUTO 00000KT 3/4SM BR OVC002 12/12 A2968 RMK AO2 RVRNO =
2018-04-25 23:07 METAR KMSV 260307Z AUTO 00000KT 1SM BR OVC002 12/12 A2968 RMK AO2 RVRNO =
2018-04-25 22:56 METAR KMSV 260256Z AUTO 00000KT 2SM BR BKN002 BKN008 OVC011 12/12 A2968 RMK AO2
                 VIS 1 1/4V3 SLP053 T01170117 58005 =
2018-04-25 22:53 METAR KMSV 260253Z AUTO 29003KT 2 1/2SM BR SCT002 BKN008 OVC070 12/12 A2968 RMK
                 AO2 VIS 1 1/4V5 CIG 006V009 =
2018-04-25 22:13 METAR KMSV 260213Z AUTO 00000KT 9SM FEW001 OVC012 12/12 A2969 RMK AO2 =
2018-04-25 21:56 METAR KMSV 260156Z AUTO 29003KT 2SM BR FEW001 BKN014 OVC036 12/12 A2970 RMK AO2
                 SLP058 T01170117 =
2018-04-25 21:53 METAR KMSV 260153Z AUTO 29003KT 2SM BR FEW001 BKN014 OVC036 12/12 A2970 RMK AO2
                 TSNO =
2018-04-25 21:46 METAR KMSV 260146Z AUTO 29003KT 1 3/4SM BR SCT016 BKN021 OVC036 12/12 A2970 RMK
                 AO2 =
2018-04-25 21:13 METAR KMSV 260113Z AUTO 00000KT 10SM OVC015 12/12 A2970 RMK AO2 TSNO =
2018-04-25 20:56 METAR KMSV 260056Z AUTO 33003KT 10SM OVC013 12/12 A2970 RMK AO2 SLP060 T01170117
                 =
2018-04-25 20:30 METAR KMSV 260030Z AUTO 33003KT 9SM OVC013 12/12 A2969 RMK AO2 TSNO =
2018-04-25 20:14 METAR KMSV 260014Z AUTO 31003KT 5SM BR OVC015 12/12 A2970 RMK AO2 =
2018-04-25 20:04 METAR KMSV 260004Z AUTO 00000KT 1 3/4SM BR OVC015 12/12 A2970 RMK AO2 =
2018-04-25 19:56 METAR KMSV 252356Z AUTO 00000KT 10SM OVC017 12/12 A2970 RMK AO2 RAE37 SLP059
                 P0002 60017 T01170117 10128 20117 56006 =
2018-04-25 19:42 METAR KMSV 252342Z AUTO 00000KT 10SM SCT002 OVC019 12/12 A2970 RMK AO2 RAE37
                 P0001 =
2018-04-25 19:29 METAR KMSV 252329Z AUTO 08003KT 10SM -RA BKN002 BKN010 OVC021 12/12 A2970 RMK
                 AO2 P0001 =
2018-04-25 19:22 METAR KMSV 252322Z AUTO 06003KT 2 1/2SM -RA BR BKN002 BKN012 OVC021 12/12 A2970
                 RMK AO2 P0001 =
2018-04-25 19:20 METAR KMSV 252320Z AUTO 06003KT 1SM -RA BR BKN004 BKN012 OVC021 12/12 A2969 RMK
                 AO2 P0001 RVRNO =
2018-04-25 19:12 METAR KMSV 252312Z AUTO 07003KT 1/2SM -RA FG BKN004 BKN013 OVC019 12/12 A2969
                 RMK AO2 CIG 002V008 P0001 RVRNO =
2018-04-25 19:10 METAR KMSV 252310Z AUTO 07003KT 3/4SM -RA BR SCT004 BKN010 OVC019 12/12 A2969
                 RMK AO2 CIG 008V012 P0001 RVRNO =
2018-04-25 19:07 METAR KMSV 252307Z AUTO 06003KT 1 1/2SM -RA BR SCT004 BKN015 OVC019 12/12 A2969
                 RMK AO2 P0001 =
2018-04-25 19:04 METAR KMSV 252304Z AUTO 06003KT 3SM -RA BR FEW004 SCT009 OVC019 12/12 A2969 RMK
                 AO2 P0001 =
2018-04-25 18:56 METAR KMSV 252256Z AUTO 00000KT 2 1/2SM -RA BR FEW004 OVC019 12/12 A2970 RMK AO2
                 SLP060 P0002 T01220117 =
2018-04-25 18:38 METAR KMSV 252238Z AUTO 06004KT 3SM -RA BR FEW004 BKN012 OVC019 12/12 A2970 RMK
                 AO2 P0001 =
2018-04-25 18:31 METAR KMSV 252231Z AUTO 00000KT 2 1/2SM -RA BR SCT004 OVC009 12/12 A2970 RMK AO2
                 CIG 005V012 P0001 =
2018-04-25 18:28 METAR KMSV 252228Z AUTO 00000KT 3SM -RA BR SCT004 BKN008 OVC011 12/12 A2971 RMK
                 AO2 CIG 006V010 P0001 =
2018-04-25 17:56 METAR KMSV 252156Z AUTO 07004KT 1 1/4SM -RA BR OVC004 12/12 A2971 RMK AO2 SLP062
                 P0003 T01220117 =
2018-04-25 17:23 METAR KMSV 252123Z AUTO 09003KT 1 3/4SM -RA BR OVC004 12/12 A2971 RMK AO2 P0001
                 =
2018-04-25 16:56 METAR KMSV 252056Z AUTO 08004KT 6SM RA BR OVC004 13/12 A2971 RMK AO2 SLP065
                 P0003 60010 T01280122 56015 =
2018-04-25 16:03 METAR KMSV 252003Z AUTO 08007KT 4SM -RA BR OVC004 12/12 A2973 RMK AO2 CIG
                 003V007 P0000 =
2018-04-25 15:56 METAR KMSV 251956Z AUTO 09007KT 2 1/2SM -RA BR OVC004 12/12 A2973 RMK AO2 VIS 1
                 3/4V5 SLP070 P0004 T01220117 =
2018-04-25 15:51 METAR KMSV 251951Z AUTO 08007KT 2 1/2SM -RA BR OVC004 12/12 A2973 RMK AO2 VIS 1
                 3/4V4 P0004 =
2018-04-25 15:22 METAR KMSV 251922Z AUTO 08008KT 4SM -RA BR OVC004 13/12 A2974 RMK AO2 P0002 =
2018-04-25 14:56 METAR KMSV 251856Z AUTO 10007KT 5SM -RA BR OVC004 12/12 A2976 RMK AO2 CIG
                 003V009 SLP081 P0003 T01220117 =
2018-04-25 13:56 METAR KMSV 251756Z AUTO 09007KT 7SM -RA OVC004 11/11 A2979 RMK AO2 SLP092 P0005
                 60011 T01110111 10117 20078 56029 =
2018-04-25 11:56 METAR KMSV 251556Z AUTO 09008KT 9SM OVC004 11/10 A2985 RMK AO2 RAB01E39 CIG
                 003V007 SLP111 P0000 T01060100 =
2018-04-25 10:56 METAR KMSV 251456Z AUTO 09007KT 9SM OVC004 09/09 A2988 RMK AO2 RAE29 SLP123
                 P0000 60006 T00940094 56020 =
2018-04-25 09:56 METAR KMSV 251356Z AUTO 09008KT 5SM -RA BR OVC002 09/08 A2990 RMK AO2 SLP129
                 P0005 T00890083 =
2018-04-25 08:56 METAR KMSV 251256Z AUTO 09008KT 9SM -RA OVC002 08/08 A2992 RMK AO2 SLP136 P0001
                 T00830078 =
2018-04-25 07:56 METAR KMSV 251156Z AUTO 08012KT 8SM -RA OVC002 08/07 A2994 RMK AO2 SLP143 P0001
                 60022 7//// T00780072 10078 20067 58019 =
2018-04-25 06:56 METAR KMSV 251056Z AUTO 08011KT 5SM -RA BR OVC002 07/07 A2996 RMK AO2 SLP151
                 P0008 T00720072 =
2018-04-25 05:56 METAR KMSV 250956Z AUTO 08009KT 6SM -RA BR OVC002 07/07 A2998 RMK AO2 SLP156
                 P0002 T00720072 =

Support USWX by starting your Amazon purchase here.